createdAt,value
2019-04-23T05:03:23.898Z,8.60
2019-04-23T05:06:10.836Z,8.08
2019-04-23T05:11:00.116Z,8.85
2019-04-23T05:15:58.602Z,8.80
2019-04-23T05:18:38.485Z,8.90
2019-04-23T05:21:16.056Z,8.20
2019-04-23T05:26:19.589Z,8.00
2019-04-23T05:28:58.587Z,8.40
2019-04-23T05:31:19.003Z,8.25
2019-04-23T05:33:57.102Z,8.65
2019-04-23T05:41:36.879Z,8.10
2019-04-23T05:43:55.804Z,7.92
2019-04-23T05:48:59.634Z,7.67
2019-04-23T05:51:37.979Z,8.10
2019-04-23T05:53:58.314Z,8.63
2019-04-23T05:56:35.054Z,8.00
2019-04-23T05:59:06.193Z,8.48
2019-04-23T06:09:13.951Z,8.13
2019-04-23T06:11:54.212Z,7.72
2019-04-23T06:16:52.733Z,7.97
2019-04-23T06:19:16.836Z,6.92
2019-04-23T06:22:00.432Z,7.30
2019-04-23T06:26:51.745Z,6.40
2019-04-23T06:29:25.600Z,7.10
2019-04-23T06:31:55.231Z,7.28
2019-04-23T06:34:29.206Z,6.90
2019-04-23T06:36:57.226Z,7.25
2019-04-23T06:39:39.649Z,7.72
2019-04-23T06:44:51.374Z,6.72
2019-04-23T06:49:50.910Z,7.53
2019-04-23T06:55:09.122Z,7.53
2019-04-23T06:57:27.091Z,7.22
2019-04-23T07:00:02.410Z,6.70
2019-04-23T07:02:33.250Z,6.97
2019-04-23T07:05:15.868Z,6.90
2019-04-23T07:10:03.584Z,7.03
2019-04-23T07:12:38.578Z,7.17
2019-04-23T07:15:25.064Z,7.53
2019-04-23T07:17:37.637Z,6.42
2019-04-23T07:20:12.897Z,7.25
2019-04-23T07:22:43.219Z,6.75
2019-04-23T07:25:17.686Z,6.85
2019-04-23T07:27:49.326Z,6.33
2019-04-23T07:30:20.601Z,6.92
2019-04-23T07:32:52.904Z,5.70
2019-04-23T07:35:15.941Z,5.60
2019-04-23T07:38:06.144Z,6.45
2019-04-23T07:40:31.301Z,6.55
2019-04-23T07:43:03.336Z,6.40
2019-04-23T07:45:45.437Z,5.72
2019-04-23T07:50:48.027Z,6.15
2019-04-23T07:55:56.816Z,6.60
2019-04-23T08:05:55.850Z,5.58
2019-04-23T08:08:42.895Z,5.08
2019-04-23T08:16:23.280Z,5.62
2019-04-23T08:18:52.697Z,5.45
2019-04-23T08:23:57.247Z,5.08
2019-04-23T08:29:12.875Z,5.62
2019-04-23T08:31:45.176Z,5.20
2019-04-23T08:39:19.393Z,5.53
2019-04-23T08:42:09.462Z,5.08
2019-04-23T08:44:27.399Z,4.80
2019-04-23T08:47:05.315Z,5.08
2019-04-23T08:49:46.920Z,5.45
2019-04-23T08:54:52.021Z,4.95
2019-04-23T08:57:08.747Z,5.12
2019-04-23T08:59:43.988Z,5.67
2019-04-23T09:04:50.341Z,5.17
2019-04-23T09:09:53.893Z,5.15
2019-04-23T09:12:24.228Z,4.92
2019-04-23T09:14:51.114Z,5.03
2019-04-23T09:17:27.410Z,5.45
2019-04-23T09:20:20.389Z,4.47
2019-04-23T09:25:02.725Z,4.75
2019-04-23T09:32:53.986Z,4.80
2019-04-23T09:35:20.884Z,4.78
2019-04-23T09:38:04.872Z,5.87
2019-04-23T09:43:29.511Z,4.58
2019-04-23T09:46:10.924Z,5.00
2019-04-23T09:48:35.459Z,4.80
2019-04-23T09:51:10.307Z,4.67
2019-04-23T09:53:34.199Z,4.65
2019-04-23T09:56:06.882Z,4.87
2019-04-23T09:58:38.020Z,4.67
2019-04-23T10:01:25.814Z,5.25
2019-04-23T10:03:41.707Z,4.92
2019-04-23T10:06:11.809Z,4.33
2019-04-23T10:08:43.062Z,4.35
2019-04-23T10:11:09.429Z,4.87
2019-04-23T10:13:40.584Z,4.87
2019-04-23T10:16:15.239Z,4.67
2019-04-23T10:18:42.458Z,4.80
2019-04-23T10:21:13.103Z,4.65
2019-04-23T10:23:43.334Z,4.75
2019-04-23T10:26:14.244Z,4.70
2019-04-23T10:28:47.691Z,4.72
2019-04-23T10:31:18.713Z,4.53
2019-04-23T10:33:50.287Z,4.40
2019-04-23T10:36:23.912Z,4.92
2019-04-23T10:39:00.645Z,4.75
2019-04-23T10:41:25.672Z,4.87
2019-04-23T10:43:58.581Z,4.30
2019-04-23T10:47:07.874Z,4.42
2019-04-23T10:49:53.254Z,4.08
2019-04-23T10:54:57.431Z,4.90
2019-04-23T10:57:16.626Z,5.08
2019-04-23T11:05:00.023Z,5.20
2019-04-23T11:15:25.638Z,5.25
2019-04-23T11:17:46.303Z,5.40
2019-04-23T11:20:25.437Z,5.45
2019-04-23T11:22:46.498Z,5.30
2019-04-23T11:25:26.374Z,5.17
2019-04-23T11:27:51.061Z,5.97
2019-04-23T11:30:32.522Z,5.03
2019-04-23T11:33:00.790Z,5.25
2019-04-23T11:35:31.412Z,5.47
2019-04-23T11:40:25.314Z,4.50
2019-04-23T11:51:21.756Z,5.10
2019-04-23T12:01:03.179Z,6.10
2019-04-23T12:03:26.489Z,5.42
2019-04-23T12:06:09.594Z,5.65
2019-04-23T12:08:37.785Z,5.67
2019-04-23T12:14:02.689Z,5.70
2019-04-23T12:16:38.114Z,5.95
2019-04-23T12:19:28.027Z,4.92
2019-04-23T12:21:37.468Z,5.40
2019-04-23T12:24:16.312Z,5.10
2019-04-23T12:26:53.012Z,5.05
2019-04-23T12:29:15.360Z,5.15
2019-04-23T12:31:38.296Z,5.55
2019-04-23T12:34:14.971Z,5.67
2019-04-23T12:36:52.703Z,5.20
2019-04-23T12:39:30.880Z,4.92
2019-04-23T12:42:01.735Z,5.40
2019-04-23T12:44:30.713Z,4.90
2019-04-23T12:47:04.879Z,5.03
2019-04-23T12:49:53.357Z,5.33
2019-04-23T12:52:12.699Z,5.28
2019-04-23T12:54:52.179Z,5.08
2019-04-23T12:57:17.988Z,5.55
2019-04-23T12:59:44.337Z,5.33
2019-04-23T13:04:48.646Z,5.40
2019-04-23T13:07:26.381Z,5.65
2019-04-23T13:10:00.967Z,5.00
2019-04-23T13:12:36.199Z,5.25
2019-04-23T13:15:05.618Z,5.30
2019-04-23T13:17:42.294Z,4.90
2019-04-23T13:20:00.127Z,6.03
2019-04-23T13:25:02.439Z,6.10
2019-04-23T13:27:50.266Z,5.67
2019-04-23T13:30:16.621Z,6.58
2019-04-23T13:35:28.129Z,5.85
2019-04-23T13:37:56.919Z,6.12
2019-04-23T13:40:23.818Z,5.58
2019-04-23T13:42:53.641Z,6.35
2019-04-23T13:45:49.665Z,6.10
2019-04-23T13:48:02.893Z,6.08
2019-04-23T13:50:38.515Z,6.40
2019-04-23T13:55:31.779Z,5.90
2019-04-23T14:03:13.418Z,5.72
2019-04-23T14:06:03.226Z,5.72
2019-04-23T14:11:02.256Z,7.15
2019-04-23T14:13:46.311Z,6.15
2019-04-23T14:16:20.759Z,6.85
2019-04-23T14:24:04.559Z,5.75
2019-04-23T14:29:02.157Z,6.25
2019-04-23T14:31:22.013Z,5.87
2019-04-23T14:44:10.784Z,5.78
2019-04-23T14:47:00.391Z,6.42
2019-04-23T14:49:19.289Z,6.45
2019-04-23T14:54:22.918Z,6.00
2019-04-23T14:56:52.607Z,6.62
2019-04-23T14:59:16.340Z,6.78
2019-04-23T15:01:54.988Z,6.45
2019-04-23T15:04:27.324Z,7.10
2019-04-23T15:07:15.639Z,6.47
2019-04-23T15:09:36.595Z,8.00
2019-04-23T15:12:11.924Z,8.40
2019-04-23T15:14:47.948Z,7.03
2019-04-23T15:17:05.783Z,7.92
2019-04-23T15:19:48.160Z,8.85
2019-04-23T15:22:13.493Z,9.20
2019-04-23T15:24:49.941Z,9.28
2019-04-23T15:27:59.983Z,9.10
2019-04-23T15:29:42.673Z,8.50
2019-04-23T15:34:57.944Z,8.20
2019-04-23T15:40:00.719Z,9.15
2019-04-23T15:45:01.295Z,8.78
2019-04-23T15:50:19.921Z,8.38
2019-04-23T15:52:44.335Z,9.93
2019-04-23T15:55:05.920Z,9.23
2019-04-23T16:00:13.009Z,8.63
2019-04-23T16:02:19.274Z,8.50
2019-04-23T16:04:51.193Z,8.35
2019-04-23T16:07:38.210Z,9.20
2019-04-23T16:10:26.034Z,9.63
2019-04-23T16:12:56.810Z,9.88
2019-04-23T16:15:35.513Z,9.18
2019-04-23T16:18:13.995Z,9.45
2019-04-23T16:20:47.009Z,9.20
2019-04-23T16:23:04.701Z,10.38
2019-04-23T16:25:43.666Z,10.63
2019-04-23T16:28:28.915Z,9.80
2019-04-23T16:31:00.130Z,11.57
2019-04-23T16:33:23.870Z,10.48
2019-04-23T16:41:17.430Z,10.60
2019-04-23T16:43:48.664Z,11.97
2019-04-23T16:46:20.980Z,11.05
2019-04-23T16:49:10.194Z,12.20
2019-04-23T16:51:27.421Z,10.38
2019-04-23T16:54:03.078Z,9.65
2019-04-23T16:56:42.005Z,12.07
2019-04-23T16:59:10.722Z,10.78
2019-04-23T17:01:35.408Z,10.75
2019-04-23T17:04:17.906Z,10.78
2019-04-23T17:06:39.511Z,11.85
2019-04-23T17:09:09.501Z,12.65
2019-04-23T17:11:46.824Z,12.30
2019-04-23T17:16:44.325Z,11.68
2019-04-23T17:19:24.208Z,11.88
2019-04-23T17:21:59.923Z,12.82
2019-04-23T17:24:25.838Z,12.95
2019-04-23T17:27:11.072Z,12.20
2019-04-23T17:29:35.163Z,12.33
2019-04-23T17:32:10.390Z,13.72
2019-04-23T17:34:57.261Z,13.68
2019-04-23T17:37:29.969Z,12.73
2019-04-23T17:42:56.885Z,13.22
2019-04-23T17:50:56.575Z,12.90
2019-04-23T17:58:37.294Z,14.73
2019-04-23T18:04:10.350Z,14.68
2019-04-23T18:09:14.571Z,12.40
2019-04-23T18:11:37.692Z,12.88
2019-04-23T18:14:08.296Z,12.28
2019-04-23T18:16:55.511Z,11.63
2019-04-23T18:19:16.819Z,12.70
2019-04-23T18:25:04.354Z,10.43
2019-04-23T18:27:32.953Z,10.30
2019-04-23T18:30:15.845Z,10.25
2019-04-23T18:35:32.716Z,11.05
2019-04-23T18:38:18.706Z,10.58
2019-04-23T18:40:58.951Z,11.08
2019-04-23T18:43:23.917Z,9.20
2019-04-23T18:45:53.836Z,9.85
2019-04-23T18:51:03.753Z,11.18
2019-04-23T18:56:19.156Z,10.80
2019-04-23T19:01:28.044Z,10.50
2019-04-23T19:06:40.018Z,10.48
2019-04-23T19:12:10.919Z,10.15
2019-04-23T19:20:04.338Z,11.30
2019-04-23T19:24:51.906Z,11.22
2019-04-23T19:27:37.084Z,10.18
2019-04-23T19:30:27.407Z,10.65
2019-04-23T19:32:59.512Z,10.32
2019-04-23T19:35:57.066Z,11.33
2019-04-23T19:38:08.302Z,10.58
2019-04-23T19:40:44.773Z,10.13
2019-04-23T19:43:11.507Z,9.90
2019-04-23T19:45:56.724Z,10.90
2019-04-23T19:48:19.312Z,10.95
2019-04-23T19:53:33.877Z,11.38
2019-04-23T19:56:08.661Z,10.95
2019-04-23T20:01:16.704Z,11.15
2019-04-23T20:03:49.795Z,10.90
2019-04-23T20:09:10.418Z,10.50
2019-04-23T20:11:27.546Z,10.60
2019-04-23T20:18:55.492Z,11.60
2019-04-23T20:21:36.379Z,11.18
2019-04-23T20:31:44.984Z,11.50
2019-04-23T20:34:56.288Z,9.85
2019-04-23T20:37:13.589Z,10.68
2019-04-23T20:39:52.434Z,10.98
2019-04-23T20:42:16.610Z,10.75
2019-04-23T20:48:20.002Z,10.58
2019-04-23T20:49:51.504Z,10.85
2019-04-23T20:52:22.994Z,11.48
2019-04-23T20:57:51.818Z,12.10
2019-04-23T21:00:20.545Z,11.18
2019-04-23T21:05:43.055Z,12.70
2019-04-23T21:13:30.869Z,10.45
2019-04-23T21:15:51.394Z,10.03
2019-04-23T21:25:47.518Z,10.53
